sensor_id;sensor_type;location;lat;lon;timestamp;P1;durP1;ratioP1;P2;durP2;ratioP2
54641;SDS011;40536;53.194;5.728;2022-07-22T00:02:06;14.82;;;13.38;;
54641;SDS011;40536;53.194;5.728;2022-07-22T00:04:31;13.30;;;12.10;;
54641;SDS011;40536;53.194;5.728;2022-07-22T00:06:57;13.57;;;10.55;;
54641;SDS011;40536;53.194;5.728;2022-07-22T00:09:23;14.18;;;10.02;;
54641;SDS011;40536;53.194;5.728;2022-07-22T00:11:48;10.57;;;9.63;;
54641;SDS011;40536;53.194;5.728;2022-07-22T00:14:14;12.75;;;10.27;;
54641;SDS011;40536;53.194;5.728;2022-07-22T00:16:40;10.48;;;9.40;;
54641;SDS011;40536;53.194;5.728;2022-07-22T00:19:06;10.18;;;9.27;;
54641;SDS011;40536;53.194;5.728;2022-07-22T00:21:32;11.35;;;10.23;;
54641;SDS011;40536;53.194;5.728;2022-07-22T00:23:57;10.38;;;9.57;;
54641;SDS011;40536;53.194;5.728;2022-07-22T00:26:23;12.63;;;11.27;;
54641;SDS011;40536;53.194;5.728;2022-07-22T00:28:49;11.13;;;10.15;;
54641;SDS011;40536;53.194;5.728;2022-07-22T00:31:14;11.52;;;10.27;;
54641;SDS011;40536;53.194;5.728;2022-07-22T00:33:40;11.27;;;10.18;;
54641;SDS011;40536;53.194;5.728;2022-07-22T00:36:06;10.65;;;9.75;;
54641;SDS011;40536;53.194;5.728;2022-07-22T00:38:32;13.68;;;9.70;;
54641;SDS011;40536;53.194;5.728;2022-07-22T00:40:59;11.48;;;9.45;;
54641;SDS011;40536;53.194;5.728;2022-07-22T00:43:24;12.35;;;9.23;;
54641;SDS011;40536;53.194;5.728;2022-07-22T00:45:50;10.70;;;9.70;;
54641;SDS011;40536;53.194;5.728;2022-07-22T00:48:16;10.50;;;9.45;;
54641;SDS011;40536;53.194;5.728;2022-07-22T00:50:42;15.82;;;9.65;;
54641;SDS011;40536;53.194;5.728;2022-07-22T00:53:08;10.93;;;9.73;;
54641;SDS011;40536;53.194;5.728;2022-07-22T00:55:34;11.48;;;10.27;;
54641;SDS011;40536;53.194;5.728;2022-07-22T00:58:02;11.25;;;9.95;;
54641;SDS011;40536;53.194;5.728;2022-07-22T01:00:28;13.45;;;11.95;;
54641;SDS011;40536;53.194;5.728;2022-07-22T01:02:54;12.35;;;10.90;;
54641;SDS011;40536;53.194;5.728;2022-07-22T01:05:20;14.27;;;12.52;;
54641;SDS011;40536;53.194;5.728;2022-07-22T01:07:45;11.70;;;10.45;;
54641;SDS011;40536;53.194;5.728;2022-07-22T01:10:12;11.20;;;10.05;;
54641;SDS011;40536;53.194;5.728;2022-07-22T01:12:38;13.25;;;10.52;;
54641;SDS011;40536;53.194;5.728;2022-07-22T01:15:04;11.65;;;10.55;;
54641;SDS011;40536;53.194;5.728;2022-07-22T01:17:30;11.73;;;10.55;;
54641;SDS011;40536;53.194;5.728;2022-07-22T01:20:00;12.65;;;11.60;;
54641;SDS011;40536;53.194;5.728;2022-07-22T01:22:27;12.38;;;11.32;;
54641;SDS011;40536;53.194;5.728;2022-07-22T01:24:53;11.93;;;10.43;;
54641;SDS011;40536;53.194;5.728;2022-07-22T01:27:18;11.90;;;10.77;;
54641;SDS011;40536;53.194;5.728;2022-07-22T01:29:44;10.93;;;9.65;;
54641;SDS011;40536;53.194;5.728;2022-07-22T01:32:10;10.18;;;9.27;;
54641;SDS011;40536;53.194;5.728;2022-07-22T01:34:36;10.43;;;9.63;;
54641;SDS011;40536;53.194;5.728;2022-07-22T01:37:02;12.20;;;9.65;;
54641;SDS011;40536;53.194;5.728;2022-07-22T01:39:27;9.65;;;8.35;;
54641;SDS011;40536;53.194;5.728;2022-07-22T01:41:53;9.85;;;8.77;;
54641;SDS011;40536;53.194;5.728;2022-07-22T01:44:18;11.68;;;8.70;;
54641;SDS011;40536;53.194;5.728;2022-07-22T01:46:44;8.95;;;7.97;;
54641;SDS011;40536;53.194;5.728;2022-07-22T01:49:10;9.43;;;7.50;;
54641;SDS011;40536;53.194;5.728;2022-07-22T01:51:35;12.02;;;8.27;;
54641;SDS011;40536;53.194;5.728;2022-07-22T01:54:01;10.07;;;8.82;;
54641;SDS011;40536;53.194;5.728;2022-07-22T01:56:28;9.30;;;8.50;;
54641;SDS011;40536;53.194;5.728;2022-07-22T01:58:54;10.43;;;9.35;;
54641;SDS011;40536;53.194;5.728;2022-07-22T02:01:19;9.63;;;8.73;;
54641;SDS011;40536;53.194;5.728;2022-07-22T02:03:46;9.82;;;8.93;;
54641;SDS011;40536;53.194;5.728;2022-07-22T02:06:11;12.95;;;9.80;;
54641;SDS011;40536;53.194;5.728;2022-07-22T02:08:37;10.02;;;9.02;;
54641;SDS011;40536;53.194;5.728;2022-07-22T02:11:03;11.30;;;10.07;;
54641;SDS011;40536;53.194;5.728;2022-07-22T02:13:29;10.88;;;9.80;;
54641;SDS011;40536;53.194;5.728;2022-07-22T02:15:54;11.27;;;10.18;;
54641;SDS011;40536;53.194;5.728;2022-07-22T02:18:20;11.40;;;10.35;;
54641;SDS011;40536;53.194;5.728;2022-07-22T02:20:46;11.77;;;10.50;;
54641;SDS011;40536;53.194;5.728;2022-07-22T02:23:12;10.68;;;9.80;;
54641;SDS011;40536;53.194;5.728;2022-07-22T02:25:38;11.95;;;10.10;;
54641;SDS011;40536;53.194;5.728;2022-07-22T02:28:05;11.50;;;10.50;;
54641;SDS011;40536;53.194;5.728;2022-07-22T02:30:30;11.68;;;10.73;;
54641;SDS011;40536;53.194;5.728;2022-07-22T02:32:57;11.02;;;10.13;;
54641;SDS011;40536;53.194;5.728;2022-07-22T02:35:23;10.45;;;9.45;;
54641;SDS011;40536;53.194;5.728;2022-07-22T02:37:49;9.60;;;8.60;;
54641;SDS011;40536;53.194;5.728;2022-07-22T02:40:15;9.48;;;8.65;;
54641;SDS011;40536;53.194;5.728;2022-07-22T02:42:40;9.35;;;8.48;;
54641;SDS011;40536;53.194;5.728;2022-07-22T02:45:06;10.77;;;7.90;;
54641;SDS011;40536;53.194;5.728;2022-07-22T02:47:32;9.02;;;8.20;;
54641;SDS011;40536;53.194;5.728;2022-07-22T02:49:58;9.48;;;7.88;;
54641;SDS011;40536;53.194;5.728;2022-07-22T02:52:23;10.13;;;8.75;;
54641;SDS011;40536;53.194;5.728;2022-07-22T02:54:49;8.40;;;7.72;;
54641;SDS011;40536;53.194;5.728;2022-07-22T02:57:15;9.20;;;8.40;;
54641;SDS011;40536;53.194;5.728;2022-07-22T02:59:41;9.90;;;8.88;;
54641;SDS011;40536;53.194;5.728;2022-07-22T03:02:06;9.80;;;8.30;;
54641;SDS011;40536;53.194;5.728;2022-07-22T03:04:32;9.32;;;8.55;;
54641;SDS011;40536;53.194;5.728;2022-07-22T03:06:58;8.88;;;8.20;;
54641;SDS011;40536;53.194;5.728;2022-07-22T03:09:23;9.57;;;8.65;;
54641;SDS011;40536;53.194;5.728;2022-07-22T03:11:49;10.48;;;9.57;;
54641;SDS011;40536;53.194;5.728;2022-07-22T03:14:15;14.27;;;9.25;;
54641;SDS011;40536;53.194;5.728;2022-07-22T03:16:41;10.02;;;9.05;;
54641;SDS011;40536;53.194;5.728;2022-07-22T03:19:07;11.00;;;9.98;;
54641;SDS011;40536;53.194;5.728;2022-07-22T03:21:32;11.90;;;10.70;;
54641;SDS011;40536;53.194;5.728;2022-07-22T03:23:58;12.18;;;11.15;;
54641;SDS011;40536;53.194;5.728;2022-07-22T03:26:24;12.00;;;11.02;;
54641;SDS011;40536;53.194;5.728;2022-07-22T03:28:50;12.20;;;11.20;;
54641;SDS011;40536;53.194;5.728;2022-07-22T03:31:16;12.57;;;11.27;;
54641;SDS011;40536;53.194;5.728;2022-07-22T03:33:41;14.13;;;12.65;;
54641;SDS011;40536;53.194;5.728;2022-07-22T03:36:07;13.27;;;12.05;;
54641;SDS011;40536;53.194;5.728;2022-07-22T03:38:33;12.35;;;11.10;;
54641;SDS011;40536;53.194;5.728;2022-07-22T03:40:59;11.70;;;10.68;;
54641;SDS011;40536;53.194;5.728;2022-07-22T03:43:25;10.68;;;9.68;;
54641;SDS011;40536;53.194;5.728;2022-07-22T03:45:51;10.93;;;9.68;;
54641;SDS011;40536;53.194;5.728;2022-07-22T03:48:16;10.50;;;9.35;;
54641;SDS011;40536;53.194;5.728;2022-07-22T03:50:42;10.85;;;9.85;;
54641;SDS011;40536;53.194;5.728;2022-07-22T03:53:07;11.13;;;10.10;;
54641;SDS011;40536;53.194;5.728;2022-07-22T03:55:33;9.70;;;8.82;;
54641;SDS011;40536;53.194;5.728;2022-07-22T03:57:59;9.98;;;9.18;;
54641;SDS011;40536;53.194;5.728;2022-07-22T04:00:24;11.90;;;8.20;;
54641;SDS011;40536;53.194;5.728;2022-07-22T04:02:50;10.07;;;8.52;;
54641;SDS011;40536;53.194;5.728;2022-07-22T04:05:16;8.95;;;8.00;;
54641;SDS011;40536;53.194;5.728;2022-07-22T04:07:41;11.68;;;8.30;;
54641;SDS011;40536;53.194;5.728;2022-07-22T04:10:07;9.02;;;7.72;;
54641;SDS011;40536;53.194;5.728;2022-07-22T04:12:34;8.15;;;6.93;;
54641;SDS011;40536;53.194;5.728;2022-07-22T04:15:02;9.80;;;7.13;;
54641;SDS011;40536;53.194;5.728;2022-07-22T04:17:29;8.15;;;7.45;;
54641;SDS011;40536;53.194;5.728;2022-07-22T04:19:55;8.20;;;7.03;;
54641;SDS011;40536;53.194;5.728;2022-07-22T04:22:20;7.82;;;6.88;;
54641;SDS011;40536;53.194;5.728;2022-07-22T04:24:46;8.60;;;7.80;;
54641;SDS011;40536;53.194;5.728;2022-07-22T04:27:12;10.57;;;7.57;;
54641;SDS011;40536;53.194;5.728;2022-07-22T04:29:38;8.95;;;8.05;;
54641;SDS011;40536;53.194;5.728;2022-07-22T04:32:04;7.80;;;7.10;;
54641;SDS011;40536;53.194;5.728;2022-07-22T04:34:30;8.52;;;7.72;;
54641;SDS011;40536;53.194;5.728;2022-07-22T04:36:56;8.68;;;7.53;;
54641;SDS011;40536;53.194;5.728;2022-07-22T04:39:22;9.05;;;7.65;;
54641;SDS011;40536;53.194;5.728;2022-07-22T04:41:47;8.75;;;8.05;;
54641;SDS011;40536;53.194;5.728;2022-07-22T04:44:13;10.00;;;7.88;;
54641;SDS011;40536;53.194;5.728;2022-07-22T04:46:38;8.77;;;7.97;;
54641;SDS011;40536;53.194;5.728;2022-07-22T04:49:04;9.70;;;8.65;;
54641;SDS011;40536;53.194;5.728;2022-07-22T04:51:30;10.18;;;9.23;;
54641;SDS011;40536;53.194;5.728;2022-07-22T04:53:55;8.77;;;7.97;;
54641;SDS011;40536;53.194;5.728;2022-07-22T04:56:21;8.32;;;7.63;;
54641;SDS011;40536;53.194;5.728;2022-07-22T04:58:46;8.25;;;7.45;;
54641;SDS011;40536;53.194;5.728;2022-07-22T05:01:12;8.38;;;7.50;;
54641;SDS011;40536;53.194;5.728;2022-07-22T05:03:38;7.78;;;7.00;;
54641;SDS011;40536;53.194;5.728;2022-07-22T05:06:05;11.63;;;7.72;;
54641;SDS011;40536;53.194;5.728;2022-07-22T05:08:31;8.85;;;7.05;;
54641;SDS011;40536;53.194;5.728;2022-07-22T05:10:56;7.90;;;7.28;;
54641;SDS011;40536;53.194;5.728;2022-07-22T05:13:22;8.15;;;7.43;;
54641;SDS011;40536;53.194;5.728;2022-07-22T05:15:48;10.77;;;7.40;;
54641;SDS011;40536;53.194;5.728;2022-07-22T05:18:14;7.95;;;7.15;;
54641;SDS011;40536;53.194;5.728;2022-07-22T05:20:41;10.32;;;7.00;;
54641;SDS011;40536;53.194;5.728;2022-07-22T05:23:07;8.30;;;7.50;;
54641;SDS011;40536;53.194;5.728;2022-07-22T05:25:32;8.55;;;7.10;;
54641;SDS011;40536;53.194;5.728;2022-07-22T05:27:58;8.45;;;7.55;;
54641;SDS011;40536;53.194;5.728;2022-07-22T05:30:24;9.10;;;8.00;;
54641;SDS011;40536;53.194;5.728;2022-07-22T05:32:49;9.43;;;8.35;;
54641;SDS011;40536;53.194;5.728;2022-07-22T05:35:16;8.45;;;7.63;;
54641;SDS011;40536;53.194;5.728;2022-07-22T05:37:41;10.63;;;8.82;;
54641;SDS011;40536;53.194;5.728;2022-07-22T05:40:07;9.50;;;8.60;;
54641;SDS011;40536;53.194;5.728;2022-07-22T05:42:33;9.27;;;8.18;;
54641;SDS011;40536;53.194;5.728;2022-07-22T05:44:59;10.05;;;9.15;;
54641;SDS011;40536;53.194;5.728;2022-07-22T05:47:25;9.88;;;8.98;;
54641;SDS011;40536;53.194;5.728;2022-07-22T05:49:50;10.57;;;9.52;;
54641;SDS011;40536;53.194;5.728;2022-07-22T05:52:16;10.45;;;9.63;;
54641;SDS011;40536;53.194;5.728;2022-07-22T05:54:42;11.73;;;9.38;;
54641;SDS011;40536;53.194;5.728;2022-07-22T05:57:08;11.90;;;9.07;;
54641;SDS011;40536;53.194;5.728;2022-07-22T05:59:35;10.02;;;9.23;;
54641;SDS011;40536;53.194;5.728;2022-07-22T06:02:01;10.20;;;9.27;;
54641;SDS011;40536;53.194;5.728;2022-07-22T06:04:26;9.23;;;8.25;;
54641;SDS011;40536;53.194;5.728;2022-07-22T06:06:52;9.02;;;8.10;;
54641;SDS011;40536;53.194;5.728;2022-07-22T06:09:18;7.93;;;7.32;;
54641;SDS011;40536;53.194;5.728;2022-07-22T06:11:43;7.82;;;7.05;;
54641;SDS011;40536;53.194;5.728;2022-07-22T06:14:09;9.68;;;8.90;;
54641;SDS011;40536;53.194;5.728;2022-07-22T06:16:35;8.18;;;7.32;;
54641;SDS011;40536;53.194;5.728;2022-07-22T06:19:01;7.20;;;6.60;;
54641;SDS011;40536;53.194;5.728;2022-07-22T06:21:27;7.53;;;6.85;;
54641;SDS011;40536;53.194;5.728;2022-07-22T06:23:53;8.60;;;7.90;;
54641;SDS011;40536;53.194;5.728;2022-07-22T06:26:18;8.18;;;7.13;;
54641;SDS011;40536;53.194;5.728;2022-07-22T06:28:44;7.35;;;6.50;;
54641;SDS011;40536;53.194;5.728;2022-07-22T06:31:09;7.85;;;6.00;;
54641;SDS011;40536;53.194;5.728;2022-07-22T06:33:35;7.50;;;5.93;;
54641;SDS011;40536;53.194;5.728;2022-07-22T06:36:01;7.38;;;6.00;;
54641;SDS011;40536;53.194;5.728;2022-07-22T06:38:26;7.57;;;5.75;;
54641;SDS011;40536;53.194;5.728;2022-07-22T06:40:52;6.35;;;5.75;;
54641;SDS011;40536;53.194;5.728;2022-07-22T06:43:18;7.57;;;5.40;;
54641;SDS011;40536;53.194;5.728;2022-07-22T06:45:44;7.53;;;5.38;;
54641;SDS011;40536;53.194;5.728;2022-07-22T06:48:09;7.32;;;6.65;;
54641;SDS011;40536;53.194;5.728;2022-07-22T06:50:35;7.10;;;4.72;;
54641;SDS011;40536;53.194;5.728;2022-07-22T06:53:00;6.13;;;4.57;;
54641;SDS011;40536;53.194;5.728;2022-07-22T06:55:26;6.55;;;4.93;;
54641;SDS011;40536;53.194;5.728;2022-07-22T06:57:52;8.35;;;5.13;;
54641;SDS011;40536;53.194;5.728;2022-07-22T07:00:18;5.68;;;5.03;;
54641;SDS011;40536;53.194;5.728;2022-07-22T07:02:43;7.30;;;4.68;;
54641;SDS011;40536;53.194;5.728;2022-07-22T07:05:09;6.38;;;5.10;;
54641;SDS011;40536;53.194;5.728;2022-07-22T07:07:35;6.45;;;5.40;;
54641;SDS011;40536;53.194;5.728;2022-07-22T07:10:02;6.22;;;5.38;;
54641;SDS011;40536;53.194;5.728;2022-07-22T07:12:28;7.30;;;5.65;;
54641;SDS011;40536;53.194;5.728;2022-07-22T07:14:53;9.63;;;6.22;;
54641;SDS011;40536;53.194;5.728;2022-07-22T07:17:19;8.32;;;6.15;;
54641;SDS011;40536;53.194;5.728;2022-07-22T07:19:45;8.05;;;5.95;;
54641;SDS011;40536;53.194;5.728;2022-07-22T07:22:10;6.43;;;5.75;;
54641;SDS011;40536;53.194;5.728;2022-07-22T07:24:36;7.15;;;5.53;;
54641;SDS011;40536;53.194;5.728;2022-07-22T07:27:02;7.32;;;5.07;;
54641;SDS011;40536;53.194;5.728;2022-07-22T07:29:27;14.88;;;6.80;;
54641;SDS011;40536;53.194;5.728;2022-07-22T07:31:53;5.80;;;4.90;;
54641;SDS011;40536;53.194;5.728;2022-07-22T07:34:19;5.45;;;4.93;;
54641;SDS011;40536;53.194;5.728;2022-07-22T07:36:44;6.70;;;5.65;;
54641;SDS011;40536;53.194;5.728;2022-07-22T07:39:10;5.20;;;4.60;;
54641;SDS011;40536;53.194;5.728;2022-07-22T07:41:36;6.93;;;5.10;;
54641;SDS011;40536;53.194;5.728;2022-07-22T07:44:01;5.07;;;4.40;;
54641;SDS011;40536;53.194;5.728;2022-07-22T07:46:27;5.95;;;4.35;;
54641;SDS011;40536;53.194;5.728;2022-07-22T07:48:52;5.57;;;4.18;;
54641;SDS011;40536;53.194;5.728;2022-07-22T07:51:18;4.70;;;4.20;;
54641;SDS011;40536;53.194;5.728;2022-07-22T07:53:45;5.63;;;4.88;;
54641;SDS011;40536;53.194;5.728;2022-07-22T07:56:11;5.93;;;4.72;;
54641;SDS011;40536;53.194;5.728;2022-07-22T07:58:37;5.97;;;5.05;;
54641;SDS011;40536;53.194;5.728;2022-07-22T08:01:04;8.77;;;5.25;;
54641;SDS011;40536;53.194;5.728;2022-07-22T08:03:30;7.00;;;5.10;;
54641;SDS011;40536;53.194;5.728;2022-07-22T08:05:56;5.88;;;5.38;;
54641;SDS011;40536;53.194;5.728;2022-07-22T08:08:22;5.72;;;5.13;;
54641;SDS011;40536;53.194;5.728;2022-07-22T08:10:48;6.47;;;5.97;;
54641;SDS011;40536;53.194;5.728;2022-07-22T08:13:14;5.63;;;5.13;;
54641;SDS011;40536;53.194;5.728;2022-07-22T08:15:40;5.30;;;4.70;;
54641;SDS011;40536;53.194;5.728;2022-07-22T08:18:06;4.85;;;4.40;;
54641;SDS011;40536;53.194;5.728;2022-07-22T08:20:31;4.68;;;4.20;;
54641;SDS011;40536;53.194;5.728;2022-07-22T08:22:57;4.80;;;4.40;;
54641;SDS011;40536;53.194;5.728;2022-07-22T08:25:23;5.13;;;4.63;;
54641;SDS011;40536;53.194;5.728;2022-07-22T08:27:49;5.60;;;4.72;;
54641;SDS011;40536;53.194;5.728;2022-07-22T08:30:15;4.68;;;4.28;;
54641;SDS011;40536;53.194;5.728;2022-07-22T08:32:41;4.45;;;3.80;;
54641;SDS011;40536;53.194;5.728;2022-07-22T08:35:07;4.68;;;4.28;;
54641;SDS011;40536;53.194;5.728;2022-07-22T08:37:33;5.05;;;4.40;;
54641;SDS011;40536;53.194;5.728;2022-07-22T08:39:58;6.57;;;5.80;;
54641;SDS011;40536;53.194;5.728;2022-07-22T08:42:24;11.07;;;6.68;;
54641;SDS011;40536;53.194;5.728;2022-07-22T08:44:50;9.93;;;5.15;;
54641;SDS011;40536;53.194;5.728;2022-07-22T08:47:20;6.57;;;5.97;;
54641;SDS011;40536;53.194;5.728;2022-07-22T08:49:49;6.65;;;5.93;;
54641;SDS011;40536;53.194;5.728;2022-07-22T08:52:15;6.40;;;5.90;;
54641;SDS011;40536;53.194;5.728;2022-07-22T08:54:41;5.80;;;5.05;;
54641;SDS011;40536;53.194;5.728;2022-07-22T08:57:06;6.50;;;5.25;;
54641;SDS011;40536;53.194;5.728;2022-07-22T08:59:32;5.35;;;4.95;;
54641;SDS011;40536;53.194;5.728;2022-07-22T09:02:01;5.53;;;5.13;;
54641;SDS011;40536;53.194;5.728;2022-07-22T09:04:31;5.75;;;4.45;;
54641;SDS011;40536;53.194;5.728;2022-07-22T09:06:57;6.68;;;5.80;;
54641;SDS011;40536;53.194;5.728;2022-07-22T09:09:33;7.65;;;6.95;;
54641;SDS011;40536;53.194;5.728;2022-07-22T09:12:08;6.20;;;5.60;;
54641;SDS011;40536;53.194;5.728;2022-07-22T09:14:47;5.28;;;4.78;;
54641;SDS011;40536;53.194;5.728;2022-07-22T09:17:23;7.70;;;4.72;;
54641;SDS011;40536;53.194;5.728;2022-07-22T09:19:49;5.50;;;4.50;;
54641;SDS011;40536;53.194;5.728;2022-07-22T09:22:29;8.27;;;5.80;;
54641;SDS011;40536;53.194;5.728;2022-07-22T09:27:51;6.20;;;5.60;;
54641;SDS011;40536;53.194;5.728;2022-07-22T09:30:22;5.70;;;5.20;;
54641;SDS011;40536;53.194;5.728;2022-07-22T09:32:49;5.75;;;5.25;;
54641;SDS011;40536;53.194;5.728;2022-07-22T09:35:16;5.30;;;4.80;;
54641;SDS011;40536;53.194;5.728;2022-07-22T09:37:54;5.63;;;5.13;;
54641;SDS011;40536;53.194;5.728;2022-07-22T09:40:22;5.97;;;5.47;;
54641;SDS011;40536;53.194;5.728;2022-07-22T09:42:51;6.38;;;4.32;;
54641;SDS011;40536;53.194;5.728;2022-07-22T09:45:18;4.50;;;4.10;;
54641;SDS011;40536;53.194;5.728;2022-07-22T09:47:45;5.43;;;4.57;;
54641;SDS011;40536;53.194;5.728;2022-07-22T09:50:15;5.13;;;4.63;;
54641;SDS011;40536;53.194;5.728;2022-07-22T09:52:43;4.20;;;3.80;;
54641;SDS011;40536;53.194;5.728;2022-07-22T09:55:09;5.05;;;3.90;;
54641;SDS011;40536;53.194;5.728;2022-07-22T09:57:35;4.88;;;4.45;;
54641;SDS011;40536;53.194;5.728;2022-07-22T10:00:01;4.70;;;4.30;;
54641;SDS011;40536;53.194;5.728;2022-07-22T10:02:28;5.32;;;4.00;;
54641;SDS011;40536;53.194;5.728;2022-07-22T10:04:56;7.55;;;4.68;;
54641;SDS011;40536;53.194;5.728;2022-07-22T10:07:24;8.73;;;4.55;;
54641;SDS011;40536;53.194;5.728;2022-07-22T10:09:51;4.72;;;4.13;;
54641;SDS011;40536;53.194;5.728;2022-07-22T10:12:18;6.20;;;4.50;;
54641;SDS011;40536;53.194;5.728;2022-07-22T10:14:44;7.75;;;4.57;;
54641;SDS011;40536;53.194;5.728;2022-07-22T10:17:12;4.90;;;4.50;;
54641;SDS011;40536;53.194;5.728;2022-07-22T10:19:39;5.20;;;4.30;;
54641;SDS011;40536;53.194;5.728;2022-07-22T10:22:07;5.65;;;4.25;;
54641;SDS011;40536;53.194;5.728;2022-07-22T10:25:17;5.60;;;5.03;;
54641;SDS011;40536;53.194;5.728;2022-07-22T10:27:52;4.75;;;4.18;;
54641;SDS011;40536;53.194;5.728;2022-07-22T10:30:24;4.45;;;4.05;;
54641;SDS011;40536;53.194;5.728;2022-07-22T10:38:18;4.40;;;3.72;;
54641;SDS011;40536;53.194;5.728;2022-07-22T10:41:02;5.05;;;3.95;;
54641;SDS011;40536;53.194;5.728;2022-07-22T10:43:30;4.10;;;3.70;;
54641;SDS011;40536;53.194;5.728;2022-07-22T10:45:57;4.40;;;4.00;;
54641;SDS011;40536;53.194;5.728;2022-07-22T10:48:25;4.30;;;3.85;;
54641;SDS011;40536;53.194;5.728;2022-07-22T10:50:55;4.40;;;4.00;;
54641;SDS011;40536;53.194;5.728;2022-07-22T10:53:55;4.82;;;4.38;;
54641;SDS011;40536;53.194;5.728;2022-07-22T10:56:27;4.40;;;3.83;;
54641;SDS011;40536;53.194;5.728;2022-07-22T10:58:55;5.60;;;4.40;;
54641;SDS011;40536;53.194;5.728;2022-07-22T11:01:22;4.85;;;4.43;;
54641;SDS011;40536;53.194;5.728;2022-07-22T11:03:49;4.63;;;4.22;;
54641;SDS011;40536;53.194;5.728;2022-07-22T11:06:26;4.47;;;4.07;;
54641;SDS011;40536;53.194;5.728;2022-07-22T11:08:57;4.38;;;3.92;;
54641;SDS011;40536;53.194;5.728;2022-07-22T11:16:38;4.93;;;4.45;;
54641;SDS011;40536;53.194;5.728;2022-07-22T11:19:05;5.40;;;4.03;;
54641;SDS011;40536;53.194;5.728;2022-07-22T11:21:32;4.55;;;4.15;;
54641;SDS011;40536;53.194;5.728;2022-07-22T11:23:59;5.60;;;5.03;;
54641;SDS011;40536;53.194;5.728;2022-07-22T11:27:03;5.60;;;4.72;;
54641;SDS011;40536;53.194;5.728;2022-07-22T11:29:25;8.85;;;5.20;;
54641;SDS011;40536;53.194;5.728;2022-07-22T11:32:06;7.47;;;4.43;;
54641;SDS011;40536;53.194;5.728;2022-07-22T11:34:38;6.70;;;4.50;;
54641;SDS011;40536;53.194;5.728;2022-07-22T11:37:17;5.50;;;4.10;;
54641;SDS011;40536;53.194;5.728;2022-07-22T11:39:45;6.13;;;4.68;;
54641;SDS011;40536;53.194;5.728;2022-07-22T11:42:11;4.82;;;3.75;;
54641;SDS011;40536;53.194;5.728;2022-07-22T11:44:38;6.60;;;5.25;;
54641;SDS011;40536;53.194;5.728;2022-07-22T11:47:06;6.20;;;4.32;;
54641;SDS011;40536;53.194;5.728;2022-07-22T11:49:34;5.32;;;4.40;;
54641;SDS011;40536;53.194;5.728;2022-07-22T11:52:05;6.43;;;4.30;;
54641;SDS011;40536;53.194;5.728;2022-07-22T11:54:37;6.20;;;4.28;;
54641;SDS011;40536;53.194;5.728;2022-07-22T11:57:04;4.88;;;4.32;;
54641;SDS011;40536;53.194;5.728;2022-07-22T11:59:30;5.22;;;4.70;;
54641;SDS011;40536;53.194;5.728;2022-07-22T12:01:58;4.53;;;4.07;;
54641;SDS011;40536;53.194;5.728;2022-07-22T12:04:25;5.60;;;4.30;;
54641;SDS011;40536;53.194;5.728;2022-07-22T12:06:52;5.07;;;4.07;;
54641;SDS011;40536;53.194;5.728;2022-07-22T12:09:23;5.57;;;4.38;;
54641;SDS011;40536;53.194;5.728;2022-07-22T12:11:54;6.15;;;3.95;;
54641;SDS011;40536;53.194;5.728;2022-07-22T12:14:25;4.80;;;4.25;;
54641;SDS011;40536;53.194;5.728;2022-07-22T12:17:00;4.82;;;4.20;;
54641;SDS011;40536;53.194;5.728;2022-07-22T12:19:27;5.82;;;4.80;;
54641;SDS011;40536;53.194;5.728;2022-07-22T12:22:40;9.10;;;4.85;;
54641;SDS011;40536;53.194;5.728;2022-07-22T12:24:45;7.38;;;4.85;;
54641;SDS011;40536;53.194;5.728;2022-07-22T12:27:22;5.82;;;4.38;;
54641;SDS011;40536;53.194;5.728;2022-07-22T12:29:48;6.22;;;4.47;;
54641;SDS011;40536;53.194;5.728;2022-07-22T12:32:16;5.95;;;4.43;;
54641;SDS011;40536;53.194;5.728;2022-07-22T12:37:27;7.93;;;5.00;;
54641;SDS011;40536;53.194;5.728;2022-07-22T12:42:32;5.03;;;4.50;;
54641;SDS011;40536;53.194;5.728;2022-07-22T12:45:10;5.47;;;4.97;;
54641;SDS011;40536;53.194;5.728;2022-07-22T12:47:56;5.88;;;4.72;;
54641;SDS011;40536;53.194;5.728;2022-07-22T12:50:35;6.60;;;5.22;;
54641;SDS011;40536;53.194;5.728;2022-07-22T12:53:04;6.40;;;5.63;;
54641;SDS011;40536;53.194;5.728;2022-07-22T12:55:35;5.75;;;5.10;;
54641;SDS011;40536;53.194;5.728;2022-07-22T12:58:03;8.13;;;6.07;;
54641;SDS011;40536;53.194;5.728;2022-07-22T13:00:40;5.28;;;4.78;;
54641;SDS011;40536;53.194;5.728;2022-07-22T13:03:08;6.72;;;5.03;;
54641;SDS011;40536;53.194;5.728;2022-07-22T13:05:34;5.47;;;4.80;;
54641;SDS011;40536;53.194;5.728;2022-07-22T13:08:04;5.82;;;5.32;;
54641;SDS011;40536;53.194;5.728;2022-07-22T13:10:30;5.63;;;5.10;;
54641;SDS011;40536;53.194;5.728;2022-07-22T13:12:56;5.47;;;4.75;;
54641;SDS011;40536;53.194;5.728;2022-07-22T13:15:22;5.90;;;5.40;;
54641;SDS011;40536;53.194;5.728;2022-07-22T13:17:48;7.03;;;5.70;;
54641;SDS011;40536;53.194;5.728;2022-07-22T13:20:15;6.65;;;6.05;;
54641;SDS011;40536;53.194;5.728;2022-07-22T13:22:42;6.07;;;5.30;;
54641;SDS011;40536;53.194;5.728;2022-07-22T13:25:09;7.97;;;6.18;;
54641;SDS011;40536;53.194;5.728;2022-07-22T13:27:34;5.78;;;5.10;;
54641;SDS011;40536;53.194;5.728;2022-07-22T13:30:02;6.10;;;5.50;;
54641;SDS011;40536;53.194;5.728;2022-07-22T13:32:28;5.60;;;5.00;;
54641;SDS011;40536;53.194;5.728;2022-07-22T13:34:54;5.68;;;4.88;;
54641;SDS011;40536;53.194;5.728;2022-07-22T13:37:20;5.40;;;4.80;;
54641;SDS011;40536;53.194;5.728;2022-07-22T13:39:46;6.35;;;5.70;;
54641;SDS011;40536;53.194;5.728;2022-07-22T13:42:13;5.88;;;4.97;;
54641;SDS011;40536;53.194;5.728;2022-07-22T13:44:43;8.30;;;5.00;;
54641;SDS011;40536;53.194;5.728;2022-07-22T13:47:09;6.32;;;5.72;;
54641;SDS011;40536;53.194;5.728;2022-07-22T13:49:35;8.23;;;4.90;;
54641;SDS011;40536;53.194;5.728;2022-07-22T13:52:01;8.43;;;4.40;;
54641;SDS011;40536;53.194;5.728;2022-07-22T13:54:27;4.88;;;4.47;;
54641;SDS011;40536;53.194;5.728;2022-07-22T13:56:53;7.15;;;5.10;;
54641;SDS011;40536;53.194;5.728;2022-07-22T13:59:20;5.15;;;4.65;;
54641;SDS011;40536;53.194;5.728;2022-07-22T14:01:48;8.07;;;4.80;;
54641;SDS011;40536;53.194;5.728;2022-07-22T14:04:14;6.35;;;5.75;;
54641;SDS011;40536;53.194;5.728;2022-07-22T14:06:39;6.80;;;4.88;;
54641;SDS011;40536;53.194;5.728;2022-07-22T14:09:05;6.18;;;5.25;;
54641;SDS011;40536;53.194;5.728;2022-07-22T14:11:31;7.30;;;5.38;;
54641;SDS011;40536;53.194;5.728;2022-07-22T14:13:58;5.55;;;4.57;;
54641;SDS011;40536;53.194;5.728;2022-07-22T14:16:24;5.07;;;4.60;;
54641;SDS011;40536;53.194;5.728;2022-07-22T14:19:09;6.32;;;5.72;;
54641;SDS011;40536;53.194;5.728;2022-07-22T14:21:38;5.50;;;4.78;;
54641;SDS011;40536;53.194;5.728;2022-07-22T14:24:05;5.78;;;5.28;;
54641;SDS011;40536;53.194;5.728;2022-07-22T14:26:34;6.68;;;5.90;;
54641;SDS011;40536;53.194;5.728;2022-07-22T14:29:00;6.35;;;4.75;;
54641;SDS011;40536;53.194;5.728;2022-07-22T14:31:26;6.82;;;5.07;;
54641;SDS011;40536;53.194;5.728;2022-07-22T14:33:55;5.93;;;5.38;;
54641;SDS011;40536;53.194;5.728;2022-07-22T14:36:21;5.32;;;4.82;;
54641;SDS011;40536;53.194;5.728;2022-07-22T14:38:48;6.90;;;5.18;;
54641;SDS011;40536;53.194;5.728;2022-07-22T14:41:21;6.65;;;6.00;;
54641;SDS011;40536;53.194;5.728;2022-07-22T14:43:50;10.82;;;6.07;;
54641;SDS011;40536;53.194;5.728;2022-07-22T14:46:16;7.43;;;6.68;;
54641;SDS011;40536;53.194;5.728;2022-07-22T14:48:42;7.28;;;5.05;;
54641;SDS011;40536;53.194;5.728;2022-07-22T14:51:08;7.32;;;6.10;;
54641;SDS011;40536;53.194;5.728;2022-07-22T14:53:34;7.45;;;6.70;;
54641;SDS011;40536;53.194;5.728;2022-07-22T14:56:00;6.25;;;5.38;;
54641;SDS011;40536;53.194;5.728;2022-07-22T14:58:25;6.82;;;5.32;;
54641;SDS011;40536;53.194;5.728;2022-07-22T15:00:51;5.28;;;4.78;;
54641;SDS011;40536;53.194;5.728;2022-07-22T15:03:17;5.63;;;4.32;;